AAL34 KMSY-KRDU
Flight info
| Callsign | AAL34 |
|---|---|
| Flight time | N/A |
| Altitude | 35000 |
| Route | CATLN Q64 HRTWL JURDI DMSTR2 |
| Aircraft | B738/M-SDE2E3FGHIRWXY/LB1 |
Departure
| Time | 2026-04-30 01:38 |
|---|---|
| Airport | Louis Armstrong New Orleans International Airport (KMSY) |
Arrival
| Time | N/A |
|---|---|
| Airport | Raleigh-Durham International Airport (KRDU) |
| Time | Latitude | Longitude | Altitude | Speed | Heading |
|---|---|---|---|---|---|
| 2026-04-30 01:08 | 29.98709 | -90.25910 | 16 ft | 0 kts | 101° |
| 2026-04-30 01:29 | 29.98711 | -90.25925 | 16 ft | 3 kts | 87° |
| 2026-04-30 01:30 | 29.98707 | -90.25945 | 15 ft | 3 kts | 47° |
| 2026-04-30 01:30 | 29.98692 | -90.25956 | 15 ft | 3 kts | 6° |
| 2026-04-30 01:30 | 29.98673 | -90.25955 | 15 ft | 3 kts | 343° |
| 2026-04-30 01:30 | 29.98660 | -90.25950 | 15 ft | 1 kts | 333° |
| 2026-04-30 01:33 | 29.98660 | -90.25951 | 15 ft | 2 kts | 333° |
| 2026-04-30 01:33 | 29.98745 | -90.26001 | 16 ft | 22 kts | 332° |
| 2026-04-30 01:34 | 29.98884 | -90.26034 | 14 ft | 21 kts | 11° |
| 2026-04-30 01:34 | 29.99014 | -90.26036 | 13 ft | 18 kts | 313° |
| 2026-04-30 01:34 | 29.99049 | -90.26157 | 14 ft | 15 kts | 285° |
| 2026-04-30 01:34 | 29.99079 | -90.26272 | 11 ft | 15 kts | 287° |
| 2026-04-30 01:35 | 29.99112 | -90.26406 | 12 ft | 20 kts | 284° |
| 2026-04-30 01:35 | 29.99155 | -90.26583 | 11 ft | 26 kts | 285° |
| 2026-04-30 01:35 | 29.99207 | -90.26803 | 12 ft | 31 kts | 285° |
| 2026-04-30 01:35 | 29.99267 | -90.27056 | 12 ft | 35 kts | 285° |
| 2026-04-30 01:36 | 29.99332 | -90.27326 | 7 ft | 35 kts | 285° |
| 2026-04-30 01:36 | 29.99398 | -90.27590 | 7 ft | 33 kts | 285° |
| 2026-04-30 01:36 | 29.99453 | -90.27831 | 7 ft | 30 kts | 285° |
| 2026-04-30 01:36 | 29.99504 | -90.28043 | 8 ft | 23 kts | 286° |
| 2026-04-30 01:37 | 29.99559 | -90.28174 | 9 ft | 17 kts | 334° |
| 2026-04-30 01:37 | 29.99654 | -90.28133 | 9 ft | 15 kts | 87° |
| 2026-04-30 01:37 | 29.99629 | -90.28014 | 9 ft | 17 kts | 105° |
| 2026-04-30 01:37 | 29.99592 | -90.27860 | 8 ft | 52 kts | 106° |
| 2026-04-30 01:38 | 29.99425 | -90.27182 | 11 ft | 121 kts | 105° |
| 2026-04-30 01:38 | 29.99138 | -90.26028 | 16 ft | 177 kts | 105° |
| 2026-04-30 01:38 | 29.98815 | -90.24576 | 550 ft | 189 kts | 104° |
| 2026-04-30 01:38 | 29.98506 | -90.23108 | 1461 ft | 186 kts | 104° |
| 2026-04-30 01:39 | 29.98325 | -90.21683 | 2474 ft | 177 kts | 94° |
| 2026-04-30 01:39 | 29.98496 | -90.20243 | 3157 ft | 188 kts | 72° |
| 2026-04-30 01:39 | 29.99193 | -90.18873 | 3583 ft | 212 kts | 47° |
| 2026-04-30 01:39 | 30.00380 | -90.17868 | 4299 ft | 212 kts | 28° |
| 2026-04-30 01:40 | 30.01693 | -90.16976 | 4792 ft | 227 kts | 26° |
| 2026-04-30 01:40 | 30.03114 | -90.16018 | 5148 ft | 245 kts | 27° |
| 2026-04-30 01:40 | 30.04644 | -90.15030 | 5581 ft | 260 kts | 25° |
| 2026-04-30 01:40 | 30.06292 | -90.14004 | 6063 ft | 276 kts | 23° |
| 2026-04-30 01:41 | 30.08009 | -90.12953 | 6783 ft | 283 kts | 27° |
| 2026-04-30 01:41 | 30.09701 | -90.11767 | 7582 ft | 286 kts | 28° |
| 2026-04-30 01:41 | 30.11402 | -90.10555 | 8373 ft | 289 kts | 28° |
| 2026-04-30 01:41 | 30.13121 | -90.09327 | 9144 ft | 292 kts | 28° |
| 2026-04-30 01:42 | 30.14859 | -90.08090 | 9864 ft | 296 kts | 28° |
| 2026-04-30 01:42 | 30.16654 | -90.06815 | 10346 ft | 311 kts | 28° |
| 2026-04-30 01:42 | 30.18567 | -90.05458 | 10497 ft | 335 kts | 28° |
| 2026-04-30 01:42 | 30.20621 | -90.04000 | 10667 ft | 357 kts | 28° |
| 2026-04-30 01:43 | 30.22783 | -90.02470 | 11014 ft | 371 kts | 28° |
| 2026-04-30 01:43 | 30.25001 | -90.00896 | 11570 ft | 377 kts | 28° |
| 2026-04-30 01:43 | 30.27262 | -89.99286 | 12108 ft | 385 kts | 28° |
| 2026-04-30 01:43 | 30.29553 | -89.97641 | 12656 ft | 391 kts | 28° |
| 2026-04-30 01:44 | 30.31843 | -89.95968 | 13470 ft | 389 kts | 28° |
| 2026-04-30 01:44 | 30.34134 | -89.94263 | 14114 ft | 393 kts | 28° |
| 2026-04-30 01:44 | 30.36431 | -89.92518 | 14687 ft | 398 kts | 28° |
| 2026-04-30 01:44 | 30.38749 | -89.90726 | 15051 ft | 402 kts | 28° |
| 2026-04-30 01:45 | 30.41070 | -89.88911 | 15030 ft | 403 kts | 28° |
| 2026-04-30 01:45 | 30.43384 | -89.87087 | 15052 ft | 401 kts | 28° |
| 2026-04-30 01:45 | 30.45695 | -89.85217 | 15345 ft | 410 kts | 33° |
| 2026-04-30 01:45 | 30.47725 | -89.82858 | 16030 ft | 418 kts | 47° |
| 2026-04-30 01:46 | 30.49315 | -89.80012 | 16678 ft | 425 kts | 58° |
| 2026-04-30 01:46 | 30.50544 | -89.76915 | 17166 ft | 433 kts | 62° |
| 2026-04-30 01:46 | 30.51739 | -89.73686 | 17628 ft | 439 kts | 63° |
| 2026-04-30 01:46 | 30.52931 | -89.70407 | 18112 ft | 443 kts | 62° |
| 2026-04-30 01:47 | 30.54174 | -89.67119 | 18684 ft | 446 kts | 61° |
| 2026-04-30 01:47 | 30.55416 | -89.63828 | 19276 ft | 446 kts | 61° |
| 2026-04-30 01:47 | 30.56662 | -89.60527 | 19795 ft | 448 kts | 62° |
| 2026-04-30 01:47 | 30.57898 | -89.57189 | 20283 ft | 452 kts | 62° |
| 2026-04-30 01:48 | 30.59129 | -89.53825 | 20881 ft | 452 kts | 62° |
| 2026-04-30 01:48 | 30.60363 | -89.50454 | 21367 ft | 456 kts | 62° |
| 2026-04-30 01:48 | 30.61663 | -89.47093 | 21873 ft | 456 kts | 61° |
| 2026-04-30 01:48 | 30.62947 | -89.43717 | 22275 ft | 460 kts | 62° |
| 2026-04-30 01:49 | 30.64216 | -89.40295 | 22670 ft | 463 kts | 62° |
| 2026-04-30 01:49 | 30.65488 | -89.36851 | 23042 ft | 465 kts | 62° |
| 2026-04-30 01:49 | 30.66770 | -89.33401 | 23466 ft | 466 kts | 62° |
| 2026-04-30 01:49 | 30.68064 | -89.29930 | 23831 ft | 468 kts | 62° |
| 2026-04-30 01:50 | 30.69365 | -89.26445 | 24153 ft | 471 kts | 62° |
| 2026-04-30 01:50 | 30.70671 | -89.22946 | 24478 ft | 474 kts | 62° |
| 2026-04-30 01:50 | 30.71985 | -89.19417 | 24804 ft | 476 kts | 62° |
| 2026-04-30 01:50 | 30.73305 | -89.15870 | 25102 ft | 479 kts | 62° |
| 2026-04-30 01:51 | 30.74626 | -89.12316 | 25449 ft | 481 kts | 62° |
| 2026-04-30 01:51 | 30.75956 | -89.08734 | 25748 ft | 483 kts | 62° |
| 2026-04-30 01:51 | 30.77292 | -89.05135 | 25996 ft | 487 kts | 62° |
| 2026-04-30 01:51 | 30.78636 | -89.01511 | 26297 ft | 489 kts | 62° |
| 2026-04-30 01:52 | 30.79963 | -88.97921 | 26628 ft | 490 kts | 62° |
| 2026-04-30 01:52 | 30.81315 | -88.94262 | 26930 ft | 492 kts | 62° |
| 2026-04-30 01:52 | 30.82668 | -88.90600 | 27239 ft | 494 kts | 62° |
| 2026-04-30 01:52 | 30.84026 | -88.86926 | 27499 ft | 496 kts | 62° |
| 2026-04-30 01:53 | 30.85391 | -88.83224 | 27729 ft | 499 kts | 62° |
| 2026-04-30 01:53 | 30.86760 | -88.79506 | 27995 ft | 501 kts | 62° |
| 2026-04-30 01:53 | 30.88131 | -88.75774 | 28299 ft | 502 kts | 62° |
| 2026-04-30 01:53 | 30.89505 | -88.72033 | 28579 ft | 503 kts | 62° |
| 2026-04-30 01:54 | 30.90882 | -88.68279 | 28813 ft | 505 kts | 62° |
| 2026-04-30 01:54 | 30.92263 | -88.64514 | 29020 ft | 508 kts | 62° |
| 2026-04-30 01:54 | 30.93652 | -88.60723 | 29258 ft | 509 kts | 62° |
| 2026-04-30 01:54 | 30.95047 | -88.56914 | 29526 ft | 510 kts | 62° |
| 2026-04-30 01:55 | 30.96438 | -88.53107 | 29749 ft | 512 kts | 62° |
| 2026-04-30 01:55 | 30.97836 | -88.49282 | 29947 ft | 514 kts | 62° |
| 2026-04-30 01:55 | 30.99238 | -88.45442 | 30189 ft | 515 kts | 62° |
| 2026-04-30 01:55 | 31.00636 | -88.41604 | 30517 ft | 513 kts | 62° |
| 2026-04-30 01:56 | 31.02021 | -88.37785 | 30857 ft | 512 kts | 62° |
| 2026-04-30 01:56 | 31.03407 | -88.33966 | 31184 ft | 511 kts | 62° |
| 2026-04-30 01:56 | 31.04790 | -88.30153 | 31524 ft | 509 kts | 62° |
| 2026-04-30 01:56 | 31.06166 | -88.26356 | 31830 ft | 509 kts | 62° |
| 2026-04-30 01:57 | 31.07542 | -88.22559 | 32123 ft | 509 kts | 62° |
| 2026-04-30 01:57 | 31.08918 | -88.18758 | 32405 ft | 508 kts | 62° |
| 2026-04-30 01:57 | 31.10292 | -88.14959 | 32694 ft | 508 kts | 62° |
| 2026-04-30 01:57 | 31.11664 | -88.11167 | 33006 ft | 507 kts | 62° |
| 2026-04-30 01:58 | 31.13033 | -88.07374 | 33296 ft | 506 kts | 62° |
| 2026-04-30 01:58 | 31.14397 | -88.03579 | 33562 ft | 506 kts | 62° |
| 2026-04-30 01:58 | 31.15759 | -87.99788 | 33814 ft | 506 kts | 62° |
| 2026-04-30 01:58 | 31.17121 | -87.96003 | 34075 ft | 506 kts | 62° |
| 2026-04-30 01:59 | 31.19833 | -87.88454 | 34472 ft | 507 kts | 62° |
| 2026-04-30 01:59 | 31.21196 | -87.84655 | 34690 ft | 508 kts | 62° |
| 2026-04-30 01:59 | 31.22556 | -87.80853 | 34942 ft | 507 kts | 62° |
| 2026-04-30 02:00 | 31.23912 | -87.77054 | 35049 ft | 506 kts | 62° |
| 2026-04-30 02:00 | 31.26627 | -87.69440 | 35046 ft | 507 kts | 62° |
| 2026-04-30 02:01 | 31.29339 | -87.61834 | 35050 ft | 506 kts | 63° |
| 2026-04-30 02:01 | 31.32506 | -87.54563 | 35047 ft | 496 kts | 50° |
| 2026-04-30 02:02 | 31.36373 | -87.47949 | 35046 ft | 495 kts | 49° |
| 2026-04-30 02:02 | 31.40303 | -87.41333 | 35045 ft | 495 kts | 49° |
| 2026-04-30 02:03 | 31.44198 | -87.34667 | 35050 ft | 497 kts | 50° |
| 2026-04-30 02:03 | 31.48071 | -87.27959 | 35047 ft | 498 kts | 50° |
| 2026-04-30 02:04 | 31.51951 | -87.21202 | 35050 ft | 500 kts | 50° |
| 2026-04-30 02:04 | 31.55839 | -87.14419 | 35044 ft | 501 kts | 51° |
| 2026-04-30 02:05 | 31.59735 | -87.07615 | 35054 ft | 503 kts | 51° |
| 2026-04-30 02:05 | 31.63639 | -87.00790 | 35044 ft | 503 kts | 51° |
| 2026-04-30 02:06 | 31.67538 | -86.93964 | 35038 ft | 504 kts | 51° |
| 2026-04-30 02:06 | 31.71414 | -86.87158 | 35017 ft | 505 kts | 51° |
| 2026-04-30 02:07 | 31.75315 | -86.80299 | 35014 ft | 504 kts | 51° |
| 2026-04-30 02:07 | 31.79210 | -86.73447 | 34998 ft | 505 kts | 52° |
| 2026-04-30 02:08 | 31.83104 | -86.66572 | 35000 ft | 505 kts | 52° |
| 2026-04-30 02:08 | 31.86998 | -86.59691 | 35003 ft | 505 kts | 52° |
| 2026-04-30 02:09 | 31.90892 | -86.52799 | 35032 ft | 506 kts | 52° |
| 2026-04-30 02:09 | 31.94787 | -86.45886 | 35037 ft | 508 kts | 52° |
| 2026-04-30 02:10 | 31.98694 | -86.38939 | 35023 ft | 509 kts | 52° |
| 2026-04-30 02:10 | 32.02612 | -86.31970 | 35015 ft | 511 kts | 53° |
| 2026-04-30 02:11 | 32.06521 | -86.24998 | 35014 ft | 514 kts | 53° |
| 2026-04-30 02:11 | 32.10464 | -86.17953 | 35014 ft | 515 kts | 53° |
| 2026-04-30 02:12 | 32.14420 | -86.10878 | 35016 ft | 516 kts | 53° |
| 2026-04-30 02:12 | 32.18371 | -86.03795 | 35010 ft | 517 kts | 53° |
| 2026-04-30 02:13 | 32.22321 | -85.96693 | 34985 ft | 518 kts | 53° |
| 2026-04-30 02:13 | 32.26265 | -85.89581 | 34983 ft | 517 kts | 53° |
| 2026-04-30 02:14 | 32.30213 | -85.82464 | 34981 ft | 516 kts | 53° |
| 2026-04-30 02:14 | 32.34140 | -85.75365 | 34980 ft | 516 kts | 53° |
| 2026-04-30 02:15 | 32.38058 | -85.68281 | 34984 ft | 514 kts | 52° |
| 2026-04-30 02:15 | 32.41967 | -85.61192 | 34980 ft | 514 kts | 52° |
| 2026-04-30 02:16 | 32.45862 | -85.54115 | 34982 ft | 513 kts | 52° |
| 2026-04-30 02:16 | 32.49753 | -85.47029 | 34984 ft | 513 kts | 51° |
| 2026-04-30 02:17 | 32.53646 | -85.39931 | 34994 ft | 513 kts | 51° |
| 2026-04-30 02:17 | 32.57541 | -85.32820 | 34986 ft | 515 kts | 51° |
| 2026-04-30 02:18 | 32.61437 | -85.25684 | 34993 ft | 515 kts | 51° |
| 2026-04-30 02:18 | 32.65331 | -85.18537 | 34976 ft | 516 kts | 51° |
| 2026-04-30 02:19 | 32.69198 | -85.11425 | 34979 ft | 517 kts | 50° |
| 2026-04-30 02:19 | 32.72623 | -85.05121 | 34977 ft | 518 kts | 50° |